Time;durP1;ratioP1;P1;durP2;ratioP2;P2;SDS_P1;SDS_P2;PMS_P1;PMS_P2;Temp;Humidity;BMP_temperature;BMP_pressure;BME280_temperature;BME280_humidity;BME280_pressure;Samples;Min_cycle;Max_cycle;Signal;HPM_P1;HPM_P2
2022/11/19 08:22:28;;;;;;;9.48;4.30;;;;;;;6.31;100.00;98282.56;5130142;27;20366;-82
2022/11/19 08:24:56;;;;;;;7.93;4.10;;;;;;;6.34;100.00;98267.88;5130718;28;20044;-82
2022/11/19 08:27:22;;;;;;;5.00;3.33;;;;;;;6.38;100.00;98285.38;5129731;27;20135;-83
2022/11/19 08:29:49;;;;;;;4.07;3.28;;;;;;;6.49;100.00;98292.25;5126792;27;20051;-82
2022/11/19 08:32:16;;;;;;;7.45;3.00;;;;;;;6.51;100.00;98291.03;5124752;27;20047;-82
2022/11/19 08:34:42;;;;;;;8.35;3.30;;;;;;;6.44;100.00;98291.94;5121225;27;20134;-82
2022/11/19 08:37:10;;;;;;;6.47;3.25;;;;;;;6.50;100.00;98293.91;5128742;27;20051;-82
2022/11/19 08:39:38;;;;;;;4.47;3.38;;;;;;;6.61;100.00;98304.31;5129033;27;20051;-82
2022/11/19 08:44:49;;;;;;;5.47;3.30;;;;;;;6.70;100.00;98307.78;5123639;27;20116;-82
2022/11/19 08:47:15;;;;;;;7.00;3.78;;;;;;;6.75;100.00;98307.25;5126431;28;20049;-83
2022/11/19 08:49:42;;;;;;;6.00;3.65;;;;;;;6.85;100.00;98311.38;5128249;27;20043;-82
2022/11/19 08:52:08;;;;;;;7.72;3.90;;;;;;;6.87;100.00;98316.59;5127590;27;20047;-82
2022/11/19 08:54:35;;;;;;;7.80;4.57;;;;;;;6.90;100.00;98300.84;5128656;27;20043;-82
2022/11/19 08:57:03;;;;;;;5.53;3.63;;;;;;;6.95;100.00;98327.31;5128251;27;20127;-83
2022/11/19 08:59:30;;;;;;;10.35;5.40;;;;;;;6.84;100.00;98309.69;5128490;27;20137;-84
2022/11/19 09:01:56;;;;;;;10.07;5.13;;;;;;;6.89;100.00;98309.13;5119835;27;20039;-83
2022/11/19 09:04:23;;;;;;;7.70;4.03;;;;;;;6.97;100.00;98314.47;5127512;27;20055;-83
2022/11/19 09:06:50;;;;;;;5.50;2.90;;;;;;;7.04;100.00;98319.97;5128213;27;20519;-83
2022/11/19 09:09:16;;;;;;;7.95;4.32;;;;;;;7.17;100.00;98328.31;5128503;27;20131;-83
2022/11/19 09:11:43;;;;;;;8.43;3.45;;;;;;;7.19;100.00;98322.72;5128282;27;20501;-83
2022/11/19 09:14:11;;;;;;;7.32;3.75;;;;;;;7.22;100.00;98316.94;5127463;27;20055;-84
2022/11/19 09:16:37;;;;;;;7.38;3.60;;;;;;;7.41;100.00;98329.94;5126823;27;20401;-83
2022/11/19 09:19:04;;;;;;;5.63;3.33;;;;;;;7.31;100.00;98323.94;5125076;27;20046;-84
2022/11/19 09:21:31;;;;;;;6.57;3.25;;;;;;;7.25;100.00;98319.28;5127706;27;20047;-83
2022/11/19 09:23:57;;;;;;;6.63;3.25;;;;;;;7.25;100.00;98339.03;5127349;27;20409;-83
2022/11/19 09:26:24;;;;;;;5.25;3.15;;;;;;;7.19;100.00;98337.06;5128045;27;20307;-83
2022/11/19 09:28:50;;;;;;;5.53;2.75;;;;;;;7.23;100.00;98343.78;5126410;27;20057;-83
2022/11/19 09:31:19;;;;;;;4.05;3.03;;;;;;;7.26;100.00;98353.41;5114134;27;20047;-83
2022/11/19 09:33:49;;;;;;;4.72;3.20;;;;;;;7.13;100.00;98326.16;5110110;28;20051;-83
2022/11/19 09:36:17;;;;;;;5.07;3.28;;;;;;;7.22;100.00;98361.03;5113874;28;20047;-83
2022/11/19 09:38:44;;;;;;;5.93;3.17;;;;;;;7.26;100.00;98353.41;5113793;28;20456;-83
2022/11/19 09:41:52;;;;;;;6.65;3.28;;;;;;;7.16;100.00;98336.59;5114201;28;20055;-83
2022/11/19 09:44:49;;;;;;;5.97;3.25;;;;;;;7.11;100.00;98331.75;5092514;27;20486;-83
2022/11/19 09:47:28;;;;;;;5.68;4.18;;;;;;;7.14;100.00;98344.06;5107362;28;20048;-83
2022/11/19 09:50:05;;;;;;;10.93;3.47;;;;;;;7.21;100.00;98353.09;5104412;28;20047;-83
2022/11/19 09:52:36;;;;;;;6.18;3.33;;;;;;;7.25;100.00;98346.31;5112958;28;20043;-83
2022/11/19 09:55:03;;;;;;;6.63;4.20;;;;;;;7.17;100.00;98322.91;5113786;28;20047;-83
2022/11/19 09:57:36;;;;;;;10.35;4.03;;;;;;;7.27;100.00;98336.13;5113696;28;20054;-83
2022/11/19 10:00:06;;;;;;;8.32;4.28;;;;;;;7.29;100.00;98328.69;5096227;28;20115;-83
2022/11/19 10:02:34;;;;;;;7.95;4.20;;;;;;;7.30;100.00;98326.81;5108702;28;20486;-83
2022/11/19 10:05:01;;;;;;;7.68;3.42;;;;;;;7.26;100.00;98338.00;5096585;28;20497;-83
2022/11/19 10:07:44;;;;;;;5.28;3.67;;;;;;;7.16;100.00;98342.84;5110132;28;20052;-84
2022/11/19 10:10:27;;;;;;;7.47;4.68;;;;;;;7.21;100.00;98329.63;5105230;28;20047;-84
2022/11/19 10:13:12;;;;;;;8.73;4.90;;;;;;;7.27;100.00;98341.53;5112526;28;20221;-83
2022/11/19 10:15:49;;;;;;;5.43;3.80;;;;;;;7.28;100.00;98345.94;5106248;27;20399;-84
2022/11/19 10:18:24;;;;;;;10.52;4.20;;;;;;;7.31;100.00;98340.16;5112136;28;20048;-84
2022/11/19 10:20:59;;;;;;;10.07;4.25;;;;;;;7.43;100.00;98349.50;5092500;28;20044;-83
2022/11/19 10:23:38;;;;;;;7.93;4.00;;;;;;;7.50;100.00;98343.34;5107506;28;20437;-83
2022/11/19 10:26:11;;;;;;;7.10;3.50;;;;;;;7.32;100.00;98331.03;5092377;28;20051;-83
2022/11/19 10:28:41;;;;;;;10.07;4.50;;;;;;;7.33;100.00;98323.75;5096595;28;20043;-84
2022/11/19 10:31:16;;;;;;;5.38;3.40;;;;;;;7.40;100.00;98328.22;5112636;28;20046;-84
2022/11/19 10:33:50;;;;;;;6.97;3.58;;;;;;;7.45;100.00;98319.56;5111861;28;20040;-84
2022/11/19 10:36:23;;;;;;;5.50;2.65;;;;;;;7.50;100.00;98330.69;5113410;28;20449;-83
2022/11/19 10:38:57;;;;;;;6.38;3.00;;;;;;;7.49;100.00;98339.81;5112146;28;20124;-84
2022/11/19 10:41:35;;;;;;;7.20;3.22;;;;;;;7.52;100.00;98317.81;5107780;28;20048;-84
2022/11/19 10:44:36;;;;;;;11.32;3.80;;;;;;;7.56;100.00;98331.81;5102849;28;20047;-84
2022/11/19 10:47:02;;;;;;;2.65;2.13;;;;;;;7.53;100.00;98322.19;5104424;28;20059;-84
2022/11/19 10:49:32;;;;;;;5.28;1.98;;;;;;;7.62;100.00;98337.31;5099294;28;20496;-84
2022/11/19 10:51:59;;;;;;;10.48;1.63;;;;;;;7.64;100.00;98325.47;5092063;28;20050;-84
2022/11/19 10:54:29;;;;;;;7.80;2.17;;;;;;;7.65;100.00;98324.41;5101039;28;20138;-84
2022/11/19 10:56:56;;;;;;;;;;;;;;;7.75;100.00;98330.41;5109036;28;20074;-84
2022/11/19 10:59:25;;;;;;;5.80;2.42;;;;;;;7.64;100.00;98318.19;5108024;28;20285;-83
2022/11/19 11:01:56;;;;;;;8.40;2.60;;;;;;;7.48;100.00;98321.06;5112226;27;20044;-83
2022/11/19 11:04:25;;;;;;;2.38;2.05;;;;;;;7.44;100.00;98309.78;5112686;28;20051;-83
2022/11/19 11:06:56;;;;;;;4.13;1.80;;;;;;;7.44;100.00;98326.03;5112745;28;20103;-83
2022/11/19 11:09:41;;;;;;;5.88;2.42;;;;;;;7.26;100.00;98307.44;5110666;28;20043;-83
2022/11/19 11:14:59;;;;;;;2.67;1.77;;;;;;;7.33;100.00;98329.16;5109418;28;20126;-83
2022/11/19 11:17:28;;;;;;;4.15;1.45;;;;;;;7.19;100.00;98328.13;5111033;28;20052;-84
2022/11/19 11:19:57;;;;;;;6.13;1.77;;;;;;;7.20;100.00;98327.94;5112289;28;20063;-84
2022/11/19 11:22:26;;;;;;;7.07;2.50;;;;;;;7.16;100.00;98325.78;5111936;28;20375;-83
2022/11/19 11:24:53;;;;;;;3.55;1.60;;;;;;;7.35;100.00;98335.25;5112324;28;20048;-83
2022/11/19 11:27:21;;;;;;;4.80;3.17;;;;;;;7.36;100.00;98328.78;5110513;28;20131;-83
2022/11/19 11:29:47;;;;;;;3.20;2.08;;;;;;;7.35;100.00;98321.72;5105981;28;20044;-83
2022/11/19 11:32:28;;;;;;;4.82;2.20;;;;;;;7.45;100.00;98324.97;5103141;28;20058;-84
2022/11/19 11:34:54;;;;;;;3.88;1.80;;;;;;;7.41;100.00;98324.50;5112056;27;20489;-84
2022/11/19 11:37:21;;;;;;;5.45;2.35;;;;;;;7.45;100.00;98327.69;5111737;28;20058;-83
2022/11/19 11:39:54;;;;;;;16.48;7.43;;;;;;;7.50;100.00;98327.13;5111743;28;20051;-84
2022/11/19 11:42:25;;;;;;;4.95;2.05;;;;;;;7.42;100.00;98318.09;5107528;28;20456;-83
2022/11/19 11:44:53;;;;;;;4.00;2.30;;;;;;;7.51;100.00;98329.66;5111430;28;20490;-84
2022/11/19 11:47:24;;;;;;;9.95;2.67;;;;;;;7.41;100.00;98312.88;5110747;28;20056;-83
2022/11/19 11:50:00;;;;;;;5.70;2.60;;;;;;;7.46;100.00;98304.19;5106157;28;20055;-83
2022/11/19 11:52:35;;;;;;;7.35;4.03;;;;;;;7.59;100.00;98309.81;5110806;28;20040;-83
2022/11/19 11:55:05;;;;;;;5.28;2.80;;;;;;;7.50;100.00;98303.63;5106800;28;20048;-84
2022/11/19 11:57:36;;;;;;;10.38;4.20;;;;;;;7.58;100.00;98317.06;5111373;28;20051;-84
2022/11/19 12:00:25;;;;;;;7.82;4.43;;;;;;;7.50;100.00;98311.75;5091198;28;20130;-84
2022/11/19 12:03:03;;;;;;;7.45;3.10;;;;;;;7.47;100.00;98319.38;5090145;28;20040;-83
2022/11/19 12:05:36;;;;;;;4.85;2.65;;;;;;;7.46;100.00;98315.84;5090419;28;20040;-84
2022/11/19 12:08:06;;;;;;;5.75;2.20;;;;;;;7.35;100.00;98309.03;5095915;28;20483;-84
2022/11/19 12:10:43;;;;;;;8.75;2.20;;;;;;;7.26;100.00;98296.63;5107680;28;20406;-84
2022/11/19 12:13:35;;;;;;;2.78;2.00;;;;;;;7.23;100.00;98311.34;5103650;28;20048;-84
2022/11/19 12:16:12;;;;;;;5.40;2.20;;;;;;;7.32;100.00;98312.09;5108747;28;20130;-84
2022/11/19 12:18:53;;;;;;;2.03;1.63;;;;;;;7.27;100.00;98311.81;5111112;28;20047;-84
2022/11/19 12:21:34;;;;;;;6.97;2.63;;;;;;;7.39;100.00;98318.47;5109578;28;20475;-84
2022/11/19 12:24:24;;;;;;;7.57;2.83;;;;;;;7.28;100.00;98313.50;5103985;28;20040;-84
2022/11/19 12:26:58;;;;;;;;;;;;;;;7.26;100.00;98320.97;5111535;28;20048;-84
2022/11/19 12:29:33;;;;;;;9.75;2.40;;;;;;;7.11;100.00;98325.50;5107922;28;19924;-84
2022/11/19 12:32:14;;;;;;;3.20;1.92;;;;;;;7.11;100.00;98320.94;5111356;28;20127;-84
2022/11/19 12:35:02;;;;;;;5.00;2.00;;;;;;;6.98;100.00;98318.84;5110015;28;20151;-84
2022/11/19 12:37:46;;;;;;;4.80;2.00;;;;;;;6.82;100.00;98308.19;5111283;28;20066;-84
2022/11/19 12:40:27;;;;;;;5.90;2.50;;;;;;;6.78;100.00;98302.31;5110765;28;20043;-84
2022/11/19 12:43:03;;;;;;;6.00;4.05;;;;;;;6.94;100.00;98319.38;5103558;28;20054;-83
2022/11/19 12:45:36;;;;;;;7.72;4.18;;;;;;;6.79;100.00;98306.69;5107365;28;20047;-84
2022/11/19 12:48:28;;;;;;;7.90;2.97;;;;;;;6.86;100.00;98314.91;5110725;28;20074;-83
2022/11/19 12:51:04;;;;;;;8.23;2.80;;;;;;;6.81;100.00;98315.44;5104597;28;20464;-83
2022/11/19 12:53:48;;;;;;;5.40;3.70;;;;;;;6.95;100.00;98331.88;5110281;28;20410;-84
2022/11/19 12:56:30;;;;;;;7.13;4.32;;;;;;;6.83;100.00;98320.66;5110842;28;20459;-83
2022/11/19 12:59:06;;;;;;;9.02;4.97;;;;;;;7.04;100.00;98334.31;5106411;28;20050;-83
2022/11/19 13:01:35;;;;;;;7.05;3.38;;;;;;;6.90;100.00;98327.03;5110626;28;20138;-83
2022/11/19 13:04:11;;;;;;;7.28;3.97;;;;;;;6.78;100.00;98313.13;5104291;28;20043;-83
2022/11/19 13:06:47;;;;;;;8.15;4.07;;;;;;;7.06;100.00;98328.72;5110916;28;20043;-83
2022/11/19 13:09:18;;;;;;;7.75;3.65;;;;;;;6.96;100.00;98329.00;5114188;28;20051;-83
2022/11/19 13:11:50;;;;;;;5.75;3.58;;;;;;;7.01;100.00;98334.69;5114836;28;20146;-83
2022/11/19 13:14:24;;;;;;;4.68;3.20;;;;;;;6.91;100.00;98316.03;5107768;28;20062;-83
2022/11/19 13:16:53;;;;;;;3.15;2.47;;;;;;;6.87;100.00;98330.94;5113092;28;20043;-82
2022/11/19 13:19:24;;;;;;;5.72;3.30;;;;;;;6.95;100.00;98329.19;5098856;28;20054;-83
2022/11/19 13:21:57;;;;;;;8.05;3.50;;;;;;;6.84;100.00;98320.50;5113051;28;20048;-84
2022/11/19 13:24:30;;;;;;;4.88;3.10;;;;;;;6.81;100.00;98303.81;5114049;28;20050;-83
2022/11/19 13:27:02;;;;;;;4.50;3.65;;;;;;;7.06;100.00;98328.72;5114487;28;20052;-83
2022/11/19 13:29:37;;;;;;;6.80;3.20;;;;;;;6.89;100.00;98326.19;5109835;28;20047;-83
2022/11/19 13:32:11;;;;;;;7.43;3.38;;;;;;;6.88;100.00;98323.66;5104635;28;20050;-83
2022/11/19 13:34:46;;;;;;;12.43;4.00;;;;;;;6.67;100.00;98300.88;5102489;28;20509;-84
2022/11/19 13:37:17;;;;;;;7.22;4.18;;;;;;;6.86;100.00;98334.66;5113807;28;20078;-83
2022/11/19 13:39:49;;;;;;;9.73;6.13;;;;;;;6.68;100.00;98297.13;5113793;28;20542;-83
2022/11/19 13:45:03;;;;;;;8.48;5.22;;;;;;;6.68;100.00;98294.44;5113811;28;20108;-83
2022/11/19 13:47:41;;;;;;;13.15;7.43;;;;;;;6.72;100.00;98316.53;5107440;28;20063;-84
2022/11/19 13:50:16;;;;;;;7.47;3.85;;;;;;;6.82;100.00;98329.78;5113663;28;20051;-84
2022/11/19 13:52:52;;;;;;;8.82;4.57;;;;;;;6.81;100.00;98322.72;5112958;28;20059;-84
2022/11/19 13:55:32;;;;;;;8.95;4.85;;;;;;;6.77;100.00;98318.69;5108190;28;20047;-84
2022/11/19 13:58:10;;;;;;;6.68;4.28;;;;;;;6.86;100.00;98339.22;5093645;28;20045;-83
2022/11/19 14:00:37;;;;;;;14.45;4.90;;;;;;;6.86;100.00;98333.81;5093483;28;20135;-84
2022/11/19 14:03:22;;;;;;;5.53;3.97;;;;;;;6.70;100.00;98343.72;5112366;28;20479;-83
2022/11/19 14:06:15;;;;;;;7.30;4.15;;;;;;;6.23;100.00;98311.47;5113627;28;20411;-83
2022/11/19 14:09:00;;;;;;;6.40;3.60;;;;;;;5.87;100.00;98328.16;5104184;27;20480;-84
2022/11/19 14:11:59;;;;;;;5.03;3.63;;;;;;;5.69;100.00;98340.03;5093069;28;20126;-85
2022/11/19 14:26:46;;;;;;;;;;;;;;;4.89;100.00;98374.03;5113840;28;20082;-83
2022/11/19 14:29:58;;;;;;;4.00;2.58;;;;;;;4.68;100.00;98349.41;5107710;28;20006;-81
2022/11/19 14:32:42;;;;;;;4.43;2.60;;;;;;;4.75;100.00;98359.34;5100569;28;20053;-80
2022/11/19 14:35:21;;;;;;;4.15;3.20;;;;;;;4.87;100.00;98367.94;5107651;28;20123;-80
2022/11/19 14:37:51;;;;;;;5.77;3.33;;;;;;;4.84;100.00;98359.38;5108067;27;20051;-80
2022/11/19 14:40:22;;;;;;;3.53;2.75;;;;;;;4.70;100.00;98360.88;5103108;28;20307;-80
2022/11/19 14:46:28;;;;;;;4.65;2.70;;;;;;;4.71;100.00;98352.63;5071965;28;20081;-80
2022/11/19 14:49:18;;;;;;;3.88;2.53;;;;;;;4.91;100.00;98377.38;5111997;28;20066;-80
2022/11/19 14:51:52;;;;;;;4.47;2.80;;;;;;;4.74;100.00;98351.44;5103546;28;20503;-80
2022/11/19 14:54:30;;;;;;;3.03;2.30;;;;;;;4.81;100.00;98355.16;5097164;28;20113;-80
2022/11/19 14:57:03;;;;;;;4.35;2.63;;;;;;;4.84;100.00;98370.97;5112480;28;20051;-80
2022/11/19 14:59:34;;;;;;;3.20;2.17;;;;;;;4.90;100.00;98374.84;5105658;28;20055;-80
2022/11/19 15:02:04;;;;;;;3.08;2.33;;;;;;;4.85;100.00;98356.50;5105090;28;20047;-79
2022/11/19 15:04:39;;;;;;;3.67;2.08;;;;;;;4.87;100.00;98394.03;5097945;28;20495;-80
2022/11/19 15:07:10;;;;;;;7.30;2.05;;;;;;;4.87;100.00;98384.09;5104989;28;20047;-80
2022/11/19 15:10:04;;;;;;;4.90;2.55;;;;;;;4.86;100.00;98386.97;5105599;28;20562;-79
2022/11/19 15:12:45;;;;;;;3.10;1.73;;;;;;;4.94;100.00;98393.19;5102275;28;20438;-80
2022/11/19 15:15:37;;;;;;;2.78;2.10;;;;;;;4.97;100.00;98394.72;5105010;28;20159;-80
2022/11/19 15:18:14;;;;;;;4.18;1.90;;;;;;;4.74;100.00;98370.28;5104236;28;20050;-80
2022/11/19 15:21:01;;;;;;;3.22;2.58;;;;;;;4.89;100.00;98395.56;5109362;27;20056;-80
2022/11/19 15:23:35;;;;;;;3.47;2.40;;;;;;;4.81;100.00;98373.16;5092006;28;20051;-80
2022/11/19 15:26:16;;;;;;;3.22;2.20;;;;;;;4.78;100.00;98391.31;5098822;28;20394;-80
2022/11/19 15:28:59;;;;;;;4.47;2.40;;;;;;;4.78;100.00;98385.09;5105187;28;20044;-80
2022/11/19 15:31:47;;;;;;;4.95;3.40;;;;;;;4.81;100.00;98383.94;5097714;28;20047;-80
2022/11/19 15:34:27;;;;;;;2.70;2.17;;;;;;;4.87;100.00;98389.50;5097443;28;20058;-80
2022/11/19 15:37:02;;;;;;;3.42;2.75;;;;;;;4.79;100.00;98373.34;5100893;28;20048;-79
2022/11/19 15:39:34;;;;;;;7.15;4.55;;;;;;;4.90;100.00;98388.31;5093819;28;20418;-79
2022/11/19 15:42:07;;;;;;;5.60;3.45;;;;;;;4.86;100.00;98390.50;5101278;27;20071;-79
2022/11/19 15:44:39;;;;;;;22.52;8.73;;;;;;;4.94;100.00;98395.91;5103583;28;20043;-79
2022/11/19 15:47:13;;;;;;;10.68;5.13;;;;;;;4.81;100.00;98363.22;5103709;28;20046;-79
2022/11/19 15:49:41;;;;;;;23.17;9.52;;;;;;;4.86;100.00;98385.09;5109508;28;20135;-79
2022/11/19 15:52:18;;;;;;;11.73;5.50;;;;;;;4.81;100.00;98392.03;5098177;28;20047;-79
2022/11/19 15:54:44;;;;;;;6.93;3.80;;;;;;;4.78;100.00;98379.72;5104888;28;20487;-79
2022/11/19 15:57:23;;;;;;;3.90;2.45;;;;;;;4.77;100.00;98376.19;5110037;28;20130;-79
2022/11/19 15:59:55;;;;;;;3.60;2.17;;;;;;;4.80;100.00;98388.47;5110082;28;20137;-79
2022/11/19 16:02:32;;;;;;;4.70;2.72;;;;;;;4.78;100.00;98377.88;5109857;28;20048;-79
2022/11/19 16:04:59;;;;;;;7.13;4.32;;;;;;;4.83;100.00;98390.81;5111030;28;20086;-79
2022/11/19 16:07:29;;;;;;;6.65;2.97;;;;;;;4.76;100.00;98377.19;5110883;28;20058;-79
2022/11/19 16:09:56;;;;;;;5.47;3.45;;;;;;;4.76;100.00;98374.50;5102141;28;20043;-79
2022/11/19 16:18:02;;;;;;;4.82;3.08;;;;;;;4.83;100.00;98388.13;5090324;28;20059;-79
2022/11/19 16:20:29;;;;;;;3.58;2.75;;;;;;;4.82;100.00;98381.09;5090232;28;20052;-79
2022/11/19 16:23:00;;;;;;;4.90;2.95;;;;;;;4.73;100.00;98374.00;5089109;28;20048;-79
2022/11/19 16:25:32;;;;;;;3.75;2.38;;;;;;;4.81;100.00;98389.34;5106067;28;20052;-79
2022/11/19 16:28:02;;;;;;;4.45;2.88;;;;;;;4.79;100.00;98381.41;5090199;28;20454;-79
2022/11/19 16:30:37;;;;;;;6.15;3.78;;;;;;;4.81;100.00;98400.09;5091698;28;20048;-79
2022/11/19 16:33:04;;;;;;;5.20;3.50;;;;;;;4.82;100.00;98397.25;5102256;28;20048;-79
2022/11/19 16:35:32;;;;;;;4.32;2.67;;;;;;;4.79;100.00;98403.78;5110441;28;20051;-79
2022/11/19 16:38:01;;;;;;;4.13;2.88;;;;;;;4.89;100.00;98408.19;5107994;28;20126;-79
2022/11/19 16:42:15;;;;;;;13.80;8.60;;;;;;;4.78;100.00;98390.50;5110493;28;20040;-79
2022/11/19 16:43:17;;;;;;;5.07;4.03;;;;;;;4.92;100.00;98407.84;5112183;28;20139;-79
2022/11/19 16:45:46;;;;;;;3.33;2.58;;;;;;;4.89;100.00;98400.09;5112232;28;20188;-79
2022/11/19 16:48:52;;;;;;;5.82;2.17;;;;;;;4.73;100.00;98387.47;5114706;28;20040;-79
2022/11/19 16:51:26;;;;;;;3.60;2.28;;;;;;;4.79;100.00;98413.72;5103226;28;20048;-79
2022/11/19 16:53:54;;;;;;;2.50;1.70;;;;;;;4.64;100.00;98388.44;5106648;28;20048;-79
2022/11/19 16:56:21;;;;;;;4.45;2.03;;;;;;;4.73;100.00;98396.38;5114477;28;20058;-79
2022/11/19 16:58:49;;;;;;;3.30;2.15;;;;;;;4.75;100.00;98401.59;5114287;28;20051;-79
2022/11/19 17:01:17;;;;;;;2.72;2.45;;;;;;;4.73;100.00;98414.41;5112384;28;20039;-79
2022/11/19 17:03:45;;;;;;;3.33;2.50;;;;;;;4.72;100.00;98415.41;5113293;28;20066;-79
2022/11/19 17:06:22;;;;;;;2.92;2.50;;;;;;;4.65;100.00;98417.06;5110202;28;20135;-79
2022/11/19 17:08:56;;;;;;;4.50;2.40;;;;;;;4.55;100.00;98404.59;5105923;28;20036;-79
2022/11/19 17:14:46;;;;;;;3.05;2.33;;;;;;;4.54;100.00;98416.38;5090793;28;20047;-79
2022/11/19 17:17:40;;;;;;;6.85;3.22;;;;;;;4.48;100.00;98425.09;5113291;28;20490;-79
2022/11/19 17:20:49;;;;;;;2.72;1.95;;;;;;;4.47;100.00;98430.66;5112724;28;20078;-79
2022/11/19 17:23:18;;;;;;;3.40;2.30;;;;;;;4.47;100.00;98427.94;5097645;28;20055;-79
2022/11/19 17:25:48;;;;;;;4.55;2.70;;;;;;;4.33;100.00;98411.44;5106570;27;20059;-79
2022/11/19 17:28:20;;;;;;;3.78;2.22;;;;;;;4.54;100.00;98442.44;5111364;28;20143;-79
2022/11/19 17:30:48;;;;;;;2.38;2.17;;;;;;;4.48;100.00;98440.41;5108763;28;20407;-79
2022/11/19 17:33:17;;;;;;;5.40;3.10;;;;;;;4.37;100.00;98422.72;5108740;28;20062;-79
2022/11/19 17:35:45;;;;;;;5.10;2.88;;;;;;;4.36;100.00;98448.78;5111777;28;20411;-79
2022/11/19 17:38:14;;;;;;;5.53;3.33;;;;;;;4.22;100.00;98428.72;5107860;28;20047;-79
2022/11/19 17:40:45;;;;;;;3.35;2.38;;;;;;;4.10;100.00;98432.72;5110486;28;20509;-79
2022/11/19 17:45:59;;;;;;;2.45;2.10;;;;;;;4.14;100.00;98430.53;5103398;28;20050;-79
2022/11/19 17:48:27;;;;;;;3.30;2.35;;;;;;;4.14;100.00;98444.84;5092462;28;20052;-78
2022/11/19 17:50:54;;;;;;;5.15;2.78;;;;;;;4.27;100.00;98439.00;5100628;28;20119;-79
2022/11/19 17:53:21;;;;;;;4.43;2.70;;;;;;;4.35;100.00;98440.88;5089727;28;20517;-79
2022/11/19 17:55:49;;;;;;;3.38;2.58;;;;;;;4.27;100.00;98427.41;5111209;28;20054;-79
2022/11/19 17:58:17;;;;;;;2.75;2.28;;;;;;;4.35;100.00;98449.81;5106244;28;20062;-79
2022/11/19 18:00:44;;;;;;;4.45;2.40;;;;;;;4.24;100.00;98426.69;5107008;28;20044;-79
2022/11/19 18:03:12;;;;;;;3.55;2.13;;;;;;;4.28;100.00;98435.31;5109789;28;20523;-79
2022/11/19 18:05:42;;;;;;;3.67;2.35;;;;;;;4.40;100.00;98454.69;5110080;28;20134;-79
2022/11/19 18:08:09;;;;;;;3.97;2.42;;;;;;;4.19;100.00;98445.19;5107219;28;20134;-79
2022/11/19 18:10:35;;;;;;;6.22;2.00;;;;;;;4.47;100.00;98461.13;5107659;28;20112;-79
2022/11/19 18:13:02;;;;;;;2.60;2.22;;;;;;;4.46;100.00;98462.13;5105725;28;20044;-79
2022/11/19 18:15:30;;;;;;;5.35;2.60;;;;;;;4.37;100.00;98455.84;5104677;28;20073;-79
2022/11/19 18:17:56;;;;;;;3.72;2.28;;;;;;;4.34;100.00;98455.34;5103965;28;20051;-79
2022/11/19 18:20:24;;;;;;;3.17;2.33;;;;;;;4.31;100.00;98464.59;5105817;28;20063;-79
2022/11/19 18:22:50;;;;;;;4.85;2.92;;;;;;;4.26;100.00;98458.84;5109400;28;20712;-79
2022/11/19 18:25:18;;;;;;;5.50;3.15;;;;;;;4.35;100.00;98473.16;5110356;28;20054;-79
2022/11/19 18:27:45;;;;;;;4.78;2.97;;;;;;;4.31;100.00;98455.69;5095743;28;20517;-79
2022/11/19 18:30:13;;;;;;;4.47;3.03;;;;;;;4.25;100.00;98470.63;5101736;28;20047;-79
2022/11/19 18:32:41;;;;;;;3.33;2.75;;;;;;;4.20;100.00;98452.25;5098093;28;20043;-79
2022/11/19 18:35:14;;;;;;;4.53;3.90;;;;;;;4.20;100.00;98463.03;5103167;28;20066;-79
2022/11/19 18:37:40;;;;;;;4.93;2.92;;;;;;;4.20;100.00;98454.94;5107180;28;20063;-78
2022/11/19 18:40:08;;;;;;;4.50;3.10;;;;;;;4.06;100.00;98453.72;5088641;28;20052;-79
2022/11/19 18:42:35;;;;;;;5.60;3.20;;;;;;;4.17;100.00;98447.22;5088937;28;20495;-79
2022/11/19 18:45:00;;;;;;;8.55;4.63;;;;;;;4.24;100.00;98477.00;5098840;28;20040;-79
2022/11/19 18:47:27;;;;;;;6.68;4.57;;;;;;;4.02;100.00;98455.03;5110471;28;20048;-79
2022/11/19 18:49:55;;;;;;;5.18;3.17;;;;;;;4.16;100.00;98467.03;5107570;28;20048;-78
2022/11/19 18:52:22;;;;;;;4.88;3.40;;;;;;;4.03;100.00;98450.50;5108964;28;20497;-79
2022/11/19 18:54:48;;;;;;;4.40;2.97;;;;;;;4.02;100.00;98456.88;5108427;28;20047;-79
2022/11/19 18:57:15;;;;;;;5.13;3.75;;;;;;;4.02;100.00;98456.88;5103988;28;20048;-79
2022/11/19 18:59:41;;;;;;;5.72;3.85;;;;;;;4.08;100.00;98458.94;5107122;28;20130;-79
2022/11/19 19:02:09;;;;;;;4.57;3.00;;;;;;;4.14;100.00;98468.19;5092730;28;20044;-79
2022/11/19 19:04:36;;;;;;;4.82;2.85;;;;;;;4.02;100.00;98464.94;5088885;28;20044;-79
2022/11/19 19:07:04;;;;;;;4.75;2.95;;;;;;;3.96;100.00;98487.09;5103889;28;20130;-79
2022/11/19 19:09:30;;;;;;;5.60;3.50;;;;;;;3.98;100.00;98482.41;5107676;28;20059;-79
2022/11/19 19:14:42;;;;;;;5.70;3.95;;;;;;;3.74;100.00;98467.81;5102407;28;20178;-79
2022/11/19 19:17:09;;;;;;;5.18;3.78;;;;;;;3.74;100.00;98469.66;5107130;28;20048;-79
2022/11/19 19:19:35;;;;;;;4.43;2.92;;;;;;;3.65;100.00;98477.66;5109654;28;20051;-79
2022/11/19 19:22:02;;;;;;;7.10;4.40;;;;;;;3.65;100.00;98485.72;5105505;28;20574;-79
2022/11/19 19:24:31;;;;;;;6.80;4.93;;;;;;;3.60;100.00;98487.19;5104727;28;20186;-79
2022/11/19 19:26:57;;;;;;;6.80;4.30;;;;;;;3.65;100.00;98490.28;5095243;28;20117;-79
2022/11/19 19:29:24;;;;;;;9.75;5.53;;;;;;;3.77;100.00;98507.81;5106985;28;20051;-79
2022/11/19 19:31:51;;;;;;;6.15;4.05;;;;;;;3.73;100.00;98522.56;5105539;28;20229;-79
2022/11/19 19:34:18;;;;;;;7.88;5.13;;;;;;;3.56;100.00;98484.00;5108621;28;20068;-79
2022/11/19 19:36:44;;;;;;;9.85;5.55;;;;;;;3.58;100.00;98505.34;5095482;28;20051;-79
2022/11/19 19:39:11;;;;;;;5.63;4.18;;;;;;;3.41;100.00;98497.13;5085382;28;20052;-79
2022/11/19 19:41:39;;;;;;;7.00;4.75;;;;;;;3.56;100.00;98520.78;5104512;28;20059;-79
2022/11/19 19:44:05;;;;;;;10.68;4.60;;;;;;;3.48;100.00;98514.34;5087015;28;20042;-79
2022/11/19 19:46:34;;;;;;;7.57;4.32;;;;;;;3.52;100.00;98517.53;5086736;28;20143;-78
2022/11/19 19:49:01;;;;;;;9.02;4.53;;;;;;;3.30;100.00;98497.41;5090107;28;20490;-79
2022/11/19 19:51:30;;;;;;;7.68;4.60;;;;;;;3.27;100.00;98495.03;5105331;28;20058;-79
2022/11/19 19:53:57;;;;;;;6.50;4.10;;;;;;;3.27;100.00;98497.72;5106047;28;20047;-79
2022/11/19 19:56:25;;;;;;;6.78;4.65;;;;;;;3.29;100.00;98509.13;5097164;28;20050;-79
2022/11/19 19:58:54;;;;;;;6.40;4.63;;;;;;;3.34;100.00;98526.50;5098893;28;20399;-78
2022/11/19 20:01:23;;;;;;;8.73;4.53;;;;;;;3.16;100.00;98507.69;5106450;28;20465;-79
2022/11/19 20:03:51;;;;;;;6.40;4.30;;;;;;;3.24;100.00;98523.03;5105366;28;20056;-78
2022/11/19 20:06:19;;;;;;;6.35;4.03;;;;;;;3.19;100.00;98522.63;5103087;28;20305;-79
2022/11/19 20:08:46;;;;;;;7.60;4.43;;;;;;;3.30;100.00;98522.41;5104478;28;20056;-79
2022/11/19 20:11:15;;;;;;;5.65;3.80;;;;;;;3.21;100.00;98519.78;5094099;28;20052;-79
2022/11/19 20:13:42;;;;;;;6.13;4.55;;;;;;;3.35;100.00;98543.44;5104247;28;20380;-79
2022/11/19 20:16:12;;;;;;;7.82;4.88;;;;;;;3.11;100.00;98536.81;5102346;28;20054;-79
2022/11/19 20:18:40;;;;;;;7.07;4.20;;;;;;;3.08;100.00;98514.81;5108610;28;20071;-79
2022/11/19 20:21:09;;;;;;;7.60;4.63;;;;;;;3.21;100.00;98525.16;5103539;28;20490;-78
2022/11/19 20:23:36;;;;;;;8.43;4.97;;;;;;;3.19;100.00;98542.28;5107023;28;20495;-79
2022/11/19 20:26:06;;;;;;;8.25;5.25;;;;;;;3.15;100.00;98537.38;5107168;28;20048;-79
2022/11/19 20:28:32;;;;;;;;;;;;;;;3.21;100.00;98543.97;5089482;28;20044;-78
2022/11/19 20:31:03;;;;;;;7.07;4.57;;;;;;;3.09;100.00;98536.16;5099361;28;19934;-79
2022/11/19 20:33:31;;;;;;;8.25;5.32;;;;;;;3.20;100.00;98548.50;5106553;28;20138;-79
2022/11/19 20:35:58;;;;;;;8.05;5.00;;;;;;;2.98;100.00;98537.22;5100532;28;20139;-79
2022/11/19 20:38:25;;;;;;;7.15;4.93;;;;;;;3.01;100.00;98546.78;5100013;28;20048;-79
2022/11/19 20:40:56;;;;;;;9.07;5.30;;;;;;;3.08;100.00;98561.31;5108129;28;20058;-78
2022/11/19 20:46:09;;;;;;;5.45;4.15;;;;;;;2.97;100.00;98575.81;5097780;28;20163;-79
2022/11/19 20:48:37;;;;;;;7.68;4.55;;;;;;;2.83;100.00;98566.41;5108436;28;20066;-79
2022/11/19 20:51:03;;;;;;;9.10;5.55;;;;;;;2.85;100.00;98554.69;5098749;28;20032;-79
2022/11/19 20:53:33;;;;;;;9.07;4.78;;;;;;;2.96;100.00;98558.00;5094092;28;20281;-78
2022/11/19 20:56:02;;;;;;;8.90;5.50;;;;;;;3.00;100.00;98555.88;5103756;28;20050;-77
2022/11/19 20:58:29;;;;;;;8.27;5.68;;;;;;;2.88;100.00;98555.22;5100548;28;20145;-79
2022/11/19 21:01:00;;;;;;;9.35;5.60;;;;;;;2.82;100.00;98537.88;5086335;28;21468;-79